Time;durP1;ratioP1;P1;durP2;ratioP2;P2;SDS_P1;SDS_P2;PMS_P1;PMS_P2;Temp;Humidity;BMP_temperature;BMP_pressure;BME280_temperature;BME280_humidity;BME280_pressure;Samples;Min_cycle;Max_cycle;Signal;HPM_P1;HPM_P2
2022/01/25 00:08:38;;;;;;;12.98;10.93;;;;;;;-8.44;100.00;100632.77;1645035;85;20917;-72
2022/01/25 00:24:48;;;;;;;17.55;10.75;;;;;;;-8.49;100.00;100620.05;1632029;87;20976;-71
2022/01/25 00:26:59;;;;;;;14.43;10.58;;;;;;;-8.51;100.00;100622.41;1603338;89;21146;-72
2022/01/25 00:29:16;;;;;;;14.03;10.00;;;;;;;-8.52;100.00;100621.58;1637262;85;25542;-71
2022/01/25 00:31:41;;;;;;;16.45;9.93;;;;;;;-8.54;100.00;100626.05;1657207;86;21494;-72
2022/01/25 00:34:07;;;;;;;16.55;9.70;;;;;;;-8.54;100.00;100626.05;1657879;86;21019;-70
2022/01/25 00:36:34;;;;;;;12.82;10.32;;;;;;;-8.54;100.00;100626.52;1658482;86;21444;-70
2022/01/25 00:39:03;;;;;;;14.43;10.30;;;;;;;-8.57;100.00;100618.90;1657921;86;21138;-70
2022/01/25 00:41:29;;;;;;;14.45;9.88;;;;;;;-8.60;100.00;100621.72;1658270;86;21490;-70
2022/01/25 00:43:59;;;;;;;18.60;10.05;;;;;;;-8.64;100.00;100623.71;1657957;86;21427;-71
2022/01/25 00:46:25;;;;;;;13.08;10.18;;;;;;;-8.68;100.00;100625.67;1659149;86;20904;-73
2022/01/25 00:48:55;;;;;;;14.13;10.38;;;;;;;-8.72;100.00;100621.62;1657610;86;20973;-71
2022/01/25 00:54:14;;;;;;;16.35;10.35;;;;;;;-8.80;100.00;100625.20;1657104;86;20106;-72
2022/01/25 00:56:48;;;;;;;14.70;10.85;;;;;;;-8.81;100.00;100626.63;1627959;87;21619;-72
2022/01/25 00:59:18;;;;;;;19.90;12.10;;;;;;;-8.85;100.00;100625.50;1626419;88;20909;-70
2022/01/25 01:01:48;;;;;;;26.07;16.25;;;;;;;-8.84;100.00;100623.76;1650767;87;20890;-70
2022/01/25 01:04:15;;;;;;;17.65;10.98;;;;;;;-8.86;100.00;100615.22;1658508;85;21237;-70
2022/01/25 01:06:44;;;;;;;17.60;11.35;;;;;;;-8.87;100.00;100618.30;1629934;88;20924;-71
2022/01/25 01:09:11;;;;;;;20.50;14.03;;;;;;;-8.90;100.00;100621.08;1657325;86;20873;-70
2022/01/25 01:11:46;;;;;;;19.85;13.65;;;;;;;-8.90;100.00;100617.65;1656298;85;21446;-70
2022/01/25 01:14:30;;;;;;;12.28;10.80;;;;;;;-8.93;100.00;100619.98;1637361;86;21454;-71
2022/01/25 01:30:47;;;;;;;17.10;12.55;;;;;;;-9.10;100.00;100616.37;1637176;86;21234;-70
2022/01/25 01:33:35;;;;;;;15.93;12.15;;;;;;;-9.12;100.00;100620.84;1656163;86;20900;-72
2022/01/25 01:43:38;;;;;;;20.90;12.93;;;;;;;-9.27;100.00;100613.11;1657946;86;21137;-71
2022/01/25 01:51:28;;;;;;;21.05;13.93;;;;;;;-9.36;100.00;100608.50;1657552;86;20928;-71
2022/01/25 01:53:50;;;;;;;15.40;11.25;;;;;;;-9.36;100.00;100607.20;1657218;86;20924;-71
2022/01/25 01:56:16;;;;;;;18.07;12.10;;;;;;;-9.34;100.00;100602.73;1657699;86;21146;-70
2022/01/25 01:58:46;;;;;;;17.57;10.88;;;;;;;-9.33;100.00;100602.30;1657995;86;20933;-73
2022/01/25 02:01:15;;;;;;;17.27;11.28;;;;;;;-9.35;100.00;100601.09;1657684;86;20965;-71
2022/01/25 02:03:43;;;;;;;18.10;12.43;;;;;;;-9.38;100.00;100590.89;1657943;86;20983;-70
2022/01/25 02:06:10;;;;;;;18.23;13.90;;;;;;;-9.38;100.00;100595.23;1637733;86;20920;-71
2022/01/25 02:08:36;;;;;;;17.27;11.30;;;;;;;-9.39;100.00;100587.09;1658129;86;21115;-70
2022/01/25 02:11:04;;;;;;;27.40;16.70;;;;;;;-9.39;100.00;100576.69;1654236;86;21447;-72
2022/01/25 02:13:33;;;;;;;17.95;13.22;;;;;;;-9.40;100.00;100575.03;1646141;87;26379;-71
2022/01/25 02:16:05;;;;;;;19.42;12.70;;;;;;;-9.40;100.00;100577.16;1645949;87;20933;-71
2022/01/25 02:23:58;;;;;;;18.73;12.28;;;;;;;-9.36;100.00;100560.88;1645849;87;20937;-70
2022/01/25 02:26:25;;;;;;;12.78;10.63;;;;;;;-9.44;100.00;100556.19;1644168;87;20874;-69
2022/01/25 02:28:52;;;;;;;18.70;10.13;;;;;;;-9.45;100.00;100555.83;1645964;87;20955;-70
2022/01/25 02:31:18;;;;;;;20.95;12.63;;;;;;;-9.42;100.00;100554.80;1646494;87;20960;-72
2022/01/25 02:33:48;;;;;;;33.85;18.05;;;;;;;-9.43;100.00;100546.17;1646002;87;21973;-70
2022/01/25 02:36:27;;;;;;;29.75;18.25;;;;;;;-9.41;100.00;100541.67;1645800;87;20913;-69
2022/01/25 02:38:57;;;;;;;43.58;20.08;;;;;;;-9.40;100.00;100547.26;1621034;88;20908;-71
2022/01/25 02:41:24;;;;;;;48.63;21.80;;;;;;;-9.39;100.00;100546.31;1636157;87;20992;-71
2022/01/25 02:43:52;;;;;;;70.20;25.68;;;;;;;-9.38;100.00;100544.09;1646440;87;20921;-69
2022/01/25 02:48:59;;;;;;;28.92;16.07;;;;;;;-9.38;100.00;100548.44;1639658;87;21001;-70
2022/01/25 02:51:40;;;;;;;16.37;13.05;;;;;;;-9.38;100.00;100543.23;1646057;87;21495;-70
2022/01/25 02:54:08;;;;;;;102.92;71.40;;;;;;;-9.41;100.00;100543.45;1646284;87;20968;-72
2022/01/25 02:56:36;;;;;;;61.77;46.68;;;;;;;-9.43;100.00;100531.02;1643311;87;20877;-70
2022/01/25 02:59:04;;;;;;;118.77;56.85;;;;;;;-9.44;100.00;100533.26;1626996;87;21137;-73
2022/01/25 03:01:32;;;;;;;181.25;76.87;;;;;;;-9.45;100.00;100531.61;1646168;87;20961;-71
2022/01/25 03:03:59;;;;;;;116.90;53.55;;;;;;;-9.47;100.00;100528.27;1645765;87;21056;-72
2022/01/25 03:06:25;;;;;;;77.05;39.60;;;;;;;-9.48;100.00;100520.91;1645879;87;20964;-71
2022/01/25 03:08:53;;;;;;;34.92;19.75;;;;;;;-9.51;100.00;100519.35;1645718;87;20937;-70
2022/01/25 03:11:21;;;;;;;17.57;11.08;;;;;;;-9.52;100.00;100515.58;1646015;86;21885;-73
2022/01/25 03:13:52;;;;;;;;;;;;;;;-9.55;100.00;100514.48;1647846;87;20994;-71
2022/01/25 03:16:28;;;;;;;24.10;14.10;;;;;;;-9.59;100.00;100509.94;1646619;87;20094;-72
2022/01/25 03:18:50;;;;;;;18.25;11.75;;;;;;;-9.58;100.00;100513.36;1644803;87;20973;-72
2022/01/25 03:21:20;;;;;;;23.22;13.55;;;;;;;-9.61;100.00;100505.78;1645671;87;20997;-71
2022/01/25 03:23:45;;;;;;;;;;;;;;;-9.63;100.00;100511.54;1649458;87;21198;-71
2022/01/25 03:26:11;;;;;;;25.52;14.43;;;;;;;-9.63;100.00;100506.34;1630297;88;20125;-72
2022/01/25 03:28:38;;;;;;;48.30;21.35;;;;;;;-9.62;100.00;100508.02;1630188;88;21030;-71
2022/01/25 03:31:05;;;;;;;49.77;23.57;;;;;;;-9.63;100.00;100505.87;1630413;88;20976;-70
2022/01/25 03:33:32;;;;;;;49.83;24.95;;;;;;;-9.62;100.00;100500.23;1630170;88;20980;-72
2022/01/25 03:35:59;;;;;;;45.88;21.33;;;;;;;-9.63;100.00;100494.17;1645918;87;21164;-71
2022/01/25 03:38:25;;;;;;;41.13;20.40;;;;;;;-9.62;100.00;100491.13;1645957;87;21471;-70
2022/01/25 03:40:52;;;;;;;29.07;15.23;;;;;;;-9.64;100.00;100490.39;1646081;87;20998;-70
2022/01/25 03:43:19;;;;;;;21.55;12.43;;;;;;;-9.69;100.00;100486.80;1645825;87;20958;-72
2022/01/25 03:45:58;;;;;;;26.07;13.72;;;;;;;-9.71;100.00;100488.19;1646137;87;21107;-72
2022/01/25 03:50:43;;;;;;;26.45;15.85;;;;;;;-9.73;100.00;100487.45;1645856;87;20968;-71
2022/01/25 03:53:10;;;;;;;;;;;;;;;-9.73;100.00;100482.72;1648447;87;21179;-69
2022/01/25 03:55:37;;;;;;;47.27;26.52;;;;;;;-9.78;100.00;100480.42;1646079;87;20099;-71
2022/01/25 03:58:04;;;;;;;65.25;32.95;;;;;;;-9.80;100.00;100471.92;1625551;87;20909;-72
2022/01/25 04:00:31;;;;;;;81.12;42.03;;;;;;;-9.83;100.00;100468.20;1646178;87;21826;-71
2022/01/25 04:03:04;;;;;;;79.15;38.65;;;;;;;-9.88;100.00;100479.37;1646036;87;20925;-70
2022/01/25 04:06:29;;;;;;;39.85;23.57;;;;;;;-9.88;100.00;100473.34;1645529;87;20945;-71
2022/01/25 04:08:04;;;;;;;21.85;15.88;;;;;;;-9.88;100.00;100472.88;1606742;87;20980;-71
2022/01/25 04:10:31;;;;;;;20.32;15.98;;;;;;;-9.89;100.00;100460.00;1645164;87;20981;-72
2022/01/25 04:12:57;;;;;;;19.00;13.43;;;;;;;-9.90;100.00;100465.64;1630968;87;21247;-72
2022/01/25 04:15:24;;;;;;;23.12;16.30;;;;;;;-9.92;100.00;100465.76;1651012;87;20909;-70
2022/01/25 04:18:00;;;;;;;18.92;12.88;;;;;;;-9.89;100.00;100466.02;1650721;86;20913;-71
2022/01/25 04:20:27;;;;;;;18.15;13.25;;;;;;;-9.88;100.00;100453.39;1649724;86;20944;-70
2022/01/25 04:25:35;;;;;;;13.60;10.32;;;;;;;-9.87;100.00;100451.17;1651284;87;21803;-71
2022/01/25 04:28:02;;;;;;;17.10;10.88;;;;;;;-9.88;100.00;100449.97;1650692;87;20953;-71
2022/01/25 04:30:32;;;;;;;13.90;11.33;;;;;;;-9.93;100.00;100452.39;1650851;86;20992;-71
2022/01/25 04:33:16;;;;;;;11.85;9.15;;;;;;;-9.97;100.00;100460.03;1627997;87;21514;-71
2022/01/25 04:49:30;;;;;;;25.08;15.13;;;;;;;-10.15;100.00;100452.12;1651279;87;21470;-69
2022/01/25 04:51:48;;;;;;;47.23;22.15;;;;;;;-10.25;100.00;100451.88;1644207;87;21557;-71
2022/01/25 05:02:01;;;;;;;14.25;12.53;;;;;;;-10.21;100.00;100442.97;1600822;88;20957;-70
2022/01/25 05:04:28;;;;;;;19.20;12.35;;;;;;;-10.24;100.00;100432.80;1600790;88;21128;-72
2022/01/25 05:06:54;;;;;;;;;;;;;;;-10.25;100.00;100426.39;1602265;88;21467;-72
2022/01/25 05:09:20;;;;;;;39.23;21.52;;;;;;;-10.25;100.00;100427.22;1601067;88;20135;-71
2022/01/25 05:11:49;;;;;;;33.85;22.73;;;;;;;-10.23;100.00;100422.77;1599618;88;21002;-70
2022/01/25 05:14:25;;;;;;;42.00;26.37;;;;;;;-10.24;100.00;100421.11;1596345;88;21488;-71
2022/01/25 05:16:55;;;;;;;31.52;20.90;;;;;;;-10.22;100.00;100426.19;1596000;88;21159;-71
2022/01/25 05:23:01;;;;;;;21.70;14.95;;;;;;;-10.18;100.00;100419.41;1582437;88;20111;-70
2022/01/25 05:25:29;;;;;;;23.73;17.67;;;;;;;-10.26;100.00;100413.02;1587321;88;21036;-71
2022/01/25 05:27:58;;;;;;;18.95;12.93;;;;;;;-10.29;100.00;100421.88;1587721;88;20960;-70
2022/01/25 05:30:25;;;;;;;15.25;12.20;;;;;;;-10.31;100.00;100418.58;1588298;89;21160;-70
2022/01/25 05:32:52;;;;;;;41.20;17.95;;;;;;;-10.39;100.00;100420.81;1587214;88;20992;-70
2022/01/25 05:35:18;;;;;;;18.07;13.15;;;;;;;-10.45;100.00;100417.33;1574359;88;20995;-73
2022/01/25 05:37:45;;;;;;;32.75;26.57;;;;;;;-10.46;100.00;100416.94;1645214;85;20965;-68
2022/01/25 05:40:26;;;;;;;119.95;67.22;;;;;;;-10.44;100.00;100415.08;1654428;85;20997;-70
2022/01/25 05:44:15;;;;;;;306.43;91.95;;;;;;;-10.44;100.00;100402.11;1637360;86;21166;-70
2022/01/25 05:45:26;;;;;;;117.75;43.50;;;;;;;-10.40;100.00;100400.98;1623795;86;20953;-73
2022/01/25 05:47:50;;;;;;;37.13;27.22;;;;;;;-10.40;100.00;100396.63;1635452;86;20961;-71
2022/01/25 05:50:17;;;;;;;54.13;43.60;;;;;;;-10.43;100.00;100400.72;1632543;86;20984;-71
2022/01/25 05:52:43;;;;;;;38.78;29.07;;;;;;;-10.48;100.00;100395.47;1631590;86;20969;-72
2022/01/25 05:55:11;;;;;;;26.48;17.25;;;;;;;-10.53;100.00;100395.77;1633122;86;21140;-71
2022/01/25 05:57:37;;;;;;;17.75;13.48;;;;;;;-10.52;100.00;100402.60;1628789;88;21477;-72
2022/01/25 06:00:06;;;;;;;18.40;12.68;;;;;;;-10.55;100.00;100400.21;1629143;88;20964;-71
2022/01/25 06:02:34;;;;;;;15.70;10.05;;;;;;;-10.59;100.00;100400.85;1623099;86;20942;-70
2022/01/25 06:05:04;;;;;;;23.30;12.40;;;;;;;-10.64;100.00;100391.23;1628663;86;20992;-72
2022/01/25 06:07:32;;;;;;;15.70;12.23;;;;;;;-10.69;100.00;100389.87;1649744;85;21229;-71
2022/01/25 06:10:03;;;;;;;24.02;13.80;;;;;;;-10.70;100.00;100385.63;1645431;84;20972;-72
2022/01/25 06:12:30;;;;;;;25.95;14.83;;;;;;;-10.71;100.00;100383.47;1639204;85;21519;-70
2022/01/25 06:14:57;;;;;;;25.68;15.38;;;;;;;-10.70;100.00;100386.45;1673124;84;21467;-68
2022/01/25 06:17:23;;;;;;;18.40;12.85;;;;;;;-10.72;100.00;100384.88;1668417;84;20938;-69
2022/01/25 06:19:51;;;;;;;19.05;14.05;;;;;;;-10.73;100.00;100389.22;1647670;85;22373;-72
2022/01/25 06:22:18;;;;;;;27.85;18.20;;;;;;;-10.78;100.00;100387.38;1649727;85;20964;-72
2022/01/25 06:24:45;;;;;;;22.70;14.30;;;;;;;-10.82;100.00;100388.05;1646617;85;20931;-68
2022/01/25 06:27:12;;;;;;;119.28;54.08;;;;;;;-10.81;100.00;100384.52;1650528;85;20905;-67
2022/01/25 06:29:39;;;;;;;710.33;301.10;;;;;;;-10.77;100.00;100379.16;1641538;87;20957;-69
2022/01/25 06:32:06;;;;;;;83.75;37.00;;;;;;;-10.76;100.00;100373.85;1657042;85;21151;-71
2022/01/25 06:34:38;;;;;;;378.85;138.47;;;;;;;-10.77;100.00;100369.61;1651532;85;20988;-69
2022/01/25 06:37:05;;;;;;;497.15;159.18;;;;;;;-10.74;100.00;100364.69;1640521;87;20888;-72
2022/01/25 06:39:33;;;;;;;263.07;83.60;;;;;;;-10.72;100.00;100363.66;1640973;85;20952;-71
2022/01/25 06:41:59;;;;;;;202.32;73.90;;;;;;;-10.62;100.00;100353.05;1640978;85;20959;-71
2022/01/25 06:44:26;;;;;;;52.65;26.85;;;;;;;-10.49;100.00;100348.38;1641258;86;22006;-71
2022/01/25 06:46:53;;;;;;;114.62;60.35;;;;;;;-10.49;100.00;100343.18;1656442;86;22169;-71
2022/01/25 06:49:19;;;;;;;32.38;21.77;;;;;;;-10.40;100.00;100335.63;1666135;86;21024;-69
2022/01/25 06:51:46;;;;;;;138.60;70.32;;;;;;;-10.28;100.00;100337.89;1640316;87;20936;-70
2022/01/25 06:54:13;;;;;;;143.95;73.12;;;;;;;-10.15;100.00;100336.58;1640199;87;21032;-70
2022/01/25 06:56:40;;;;;;;241.02;193.20;;;;;;;-9.98;100.00;100332.86;1640232;87;20968;-71
2022/01/25 06:59:07;;;;;;;361.98;132.67;;;;;;;-9.96;100.00;100330.99;1641200;87;21477;-70
2022/01/25 07:01:35;;;;;;;;;;;;;;;-9.98;100.00;100332.86;1673221;84;21422;-70
2022/01/25 07:04:02;;;;;;;46.48;20.05;;;;;;;-10.09;100.00;100328.39;1699532;84;20115;-70
2022/01/25 07:06:29;;;;;;;135.37;66.22;;;;;;;-10.14;100.00;100315.72;1699939;84;20928;-72
2022/01/25 07:08:56;;;;;;;31.90;17.42;;;;;;;-10.23;100.00;100325.41;1699541;84;21800;-70
2022/01/25 07:11:23;;;;;;;19.82;12.58;;;;;;;-10.25;100.00;100318.66;1699475;84;21552;-71
2022/01/25 07:13:50;;;;;;;105.22;48.68;;;;;;;-10.23;100.00;100312.89;1690591;83;20936;-73
2022/01/25 07:16:17;;;;;;;28.60;20.12;;;;;;;-10.16;100.00;100317.58;1688136;85;21490;-71
2022/01/25 07:18:43;;;;;;;320.57;230.43;;;;;;;-10.16;100.00;100316.28;1687902;85;20936;-71
2022/01/25 07:21:10;;;;;;;185.78;142.70;;;;;;;-10.14;100.00;100313.59;1685938;85;21550;-71
2022/01/25 07:23:37;;;;;;;680.37;277.15;;;;;;;-10.06;100.00;100308.70;1687932;85;20880;-70
2022/01/25 07:26:03;;;;;;;334.15;119.57;;;;;;;-9.97;100.00;100313.28;1688299;85;20881;-70
2022/01/25 07:28:30;;;;;;;596.27;223.20;;;;;;;-9.93;100.00;100303.51;1688013;84;20982;-70
2022/01/25 07:30:56;;;;;;;116.73;44.13;;;;;;;-9.94;100.00;100303.16;1688246;85;21497;-70
2022/01/25 07:33:23;;;;;;;135.25;48.75;;;;;;;-10.00;100.00;100300.48;1688005;85;21750;-70
2022/01/25 07:35:50;;;;;;;85.60;35.13;;;;;;;-9.92;100.00;100303.41;1659502;85;21495;-71
2022/01/25 07:38:16;;;;;;;19.23;12.88;;;;;;;-10.02;100.00;100301.52;1646662;87;20911;-70
2022/01/25 07:40:44;;;;;;;14.03;11.00;;;;;;;-10.12;100.00;100299.19;1651753;85;21502;-71
2022/01/25 07:43:10;;;;;;;35.13;20.65;;;;;;;-10.07;100.00;100292.74;1656803;85;21029;-71
2022/01/25 07:45:37;;;;;;;177.87;78.78;;;;;;;-10.08;100.00;100287.67;1643207;87;21515;-69
2022/01/25 07:48:06;;;;;;;23.45;15.18;;;;;;;-10.10;100.00;100281.74;1643028;87;20933;-70
2022/01/25 07:50:33;;;;;;;17.60;13.05;;;;;;;-10.01;100.00;100283.73;1643351;87;20937;-71
2022/01/25 07:53:00;;;;;;;16.73;11.85;;;;;;;-9.89;100.00;100275.09;1642969;87;21004;-69
2022/01/25 07:55:26;;;;;;;114.72;45.35;;;;;;;-9.89;100.00;100271.20;1643369;87;20941;-70
2022/01/25 07:57:53;;;;;;;35.23;20.85;;;;;;;-9.85;100.00;100276.53;1643044;87;21134;-70
2022/01/25 08:00:20;;;;;;;761.30;321.32;;;;;;;-9.84;100.00;100273.02;1643351;87;21004;-70
2022/01/25 08:02:47;;;;;;;56.48;25.17;;;;;;;-9.65;100.00;100269.12;1633807;85;20955;-71
2022/01/25 08:05:15;;;;;;;9.75;7.67;;;;;;;-9.45;100.00;100259.96;1617699;88;20946;-69
2022/01/25 08:07:44;;;;;;;34.20;18.07;;;;;;;-9.43;100.00;100250.27;1617450;88;21505;-69
2022/01/25 08:10:10;;;;;;;66.85;31.17;;;;;;;-9.24;100.00;100254.99;1617596;88;21162;-69
2022/01/25 08:12:37;;;;;;;26.55;15.23;;;;;;;-9.16;100.00;100253.52;1617412;86;20954;-69
2022/01/25 08:15:05;;;;;;;19.55;11.05;;;;;;;-9.05;100.00;100252.73;1617525;88;21485;-70
2022/01/25 08:17:32;;;;;;;19.67;12.37;;;;;;;-9.03;100.00;100246.95;1617582;88;28073;-70
2022/01/25 08:19:59;;;;;;;76.02;41.83;;;;;;;-8.91;100.00;100251.27;1617740;87;20954;-70
2022/01/25 08:22:26;;;;;;;32.20;21.80;;;;;;;-8.87;100.00;100239.70;1633952;85;21497;-70
2022/01/25 08:24:53;;;;;;;23.50;15.88;;;;;;;-8.89;100.00;100222.07;1617729;88;21037;-70
2022/01/25 08:27:23;;;;;;;40.63;23.47;;;;;;;-8.88;100.00;100228.92;1617650;88;20954;-70
2022/01/25 08:29:50;;;;;;;48.45;21.70;;;;;;;-8.80;100.00;100236.16;1617728;88;21002;-70
2022/01/25 08:32:17;;;;;;;285.80;120.50;;;;;;;-9.01;100.00;100233.37;1617673;88;20954;-70
2022/01/25 08:34:44;;;;;;;23.32;14.60;;;;;;;-9.01;100.00;100224.72;1621428;87;21036;-69
2022/01/25 08:37:11;;;;;;;62.98;33.08;;;;;;;-8.98;100.00;100227.94;1627161;87;21658;-70
2022/01/25 08:39:37;;;;;;;28.25;16.25;;;;;;;-8.81;100.00;100229.78;1617779;88;20966;-72
2022/01/25 08:42:04;;;;;;;42.70;27.45;;;;;;;-8.97;100.00;100237.39;1628492;85;20980;-69
2022/01/25 08:44:31;;;;;;;24.80;15.10;;;;;;;-8.89;100.00;100229.88;1682609;85;21052;-70
2022/01/25 08:46:58;;;;;;;28.52;16.27;;;;;;;-8.90;100.00;100236.48;1687867;85;21140;-74
2022/01/25 08:49:25;;;;;;;15.25;12.45;;;;;;;-8.80;100.00;100227.53;1688015;84;20900;-70
2022/01/25 08:51:51;;;;;;;253.95;186.92;;;;;;;-8.84;100.00;100221.73;1687814;85;20987;-70
2022/01/25 08:54:18;;;;;;;308.95;141.18;;;;;;;-8.92;100.00;100218.84;1688427;85;20916;-70
2022/01/25 08:56:44;;;;;;;352.30;140.35;;;;;;;-8.81;100.00;100218.90;1687827;85;20908;-70
2022/01/25 08:59:11;;;;;;;82.55;37.30;;;;;;;-8.79;100.00;100218.77;1687891;85;22011;-71
2022/01/25 09:01:38;;;;;;;71.22;30.32;;;;;;;-8.82;100.00;100211.20;1687617;85;21518;-71
2022/01/25 09:04:04;;;;;;;32.30;18.65;;;;;;;-8.82;100.00;100207.30;1687906;85;21482;-70
2022/01/25 09:06:31;;;;;;;30.52;18.32;;;;;;;-8.77;100.00;100206.03;1682127;85;21004;-69
2022/01/25 09:09:04;;;;;;;23.07;15.15;;;;;;;-8.76;100.00;100202.95;1673416;85;21479;-71
2022/01/25 09:11:31;;;;;;;25.97;16.95;;;;;;;-8.69;100.00;100210.19;1671800;85;21550;-70
2022/01/25 09:13:57;;;;;;;22.95;16.60;;;;;;;-8.69;100.00;100204.16;1682009;85;20943;-71
2022/01/25 09:16:24;;;;;;;24.80;16.60;;;;;;;-8.51;100.00;100197.56;1689887;85;20944;-69
2022/01/25 09:18:51;;;;;;;31.10;16.97;;;;;;;-8.41;100.00;100190.70;1689676;83;20960;-70
2022/01/25 09:21:18;;;;;;;23.55;15.60;;;;;;;-8.35;100.00;100188.09;1688773;83;21485;-67
2022/01/25 09:23:44;;;;;;;54.73;29.30;;;;;;;-8.49;100.00;100189.16;1665149;85;21644;-69
2022/01/25 09:26:12;;;;;;;20.02;13.45;;;;;;;-8.41;100.00;100183.37;1657405;86;21604;-71
2022/01/25 09:28:38;;;;;;;123.40;56.80;;;;;;;-8.39;100.00;100180.66;1698763;83;20911;-70
2022/01/25 09:31:07;;;;;;;28.17;18.42;;;;;;;-8.41;100.00;100179.47;1675691;84;20943;-70
2022/01/25 09:33:34;;;;;;;29.95;17.73;;;;;;;-8.39;100.00;100172.85;1675844;85;21546;-67
2022/01/25 09:36:01;;;;;;;26.20;14.25;;;;;;;-8.26;100.00;100152.70;1662754;85;21091;-71
2022/01/25 09:38:28;;;;;;;76.22;40.00;;;;;;;-8.18;100.00;100156.86;1675419;85;20933;-68
2022/01/25 09:40:54;;;;;;;22.95;14.70;;;;;;;-8.12;100.00;100151.16;1686727;85;21549;-66
2022/01/25 09:43:23;;;;;;;37.83;22.52;;;;;;;-8.23;100.00;100149.84;1665467;85;20985;-68
2022/01/25 09:45:50;;;;;;;;;;;;;;;-8.24;100.00;100150.80;1652596;86;20991;-69
2022/01/25 09:48:17;;;;;;;44.30;24.40;;;;;;;-8.40;100.00;100144.69;1675880;85;21177;-70
2022/01/25 09:50:43;;;;;;;14.45;9.90;;;;;;;-8.38;100.00;100141.92;1684419;84;21494;-67
2022/01/25 09:53:10;;;;;;;20.57;12.75;;;;;;;-8.42;100.00;100132.26;1668549;85;20936;-69
2022/01/25 09:55:40;;;;;;;57.23;27.75;;;;;;;-8.44;100.00;100132.84;1679899;85;20928;-69
2022/01/25 09:58:08;;;;;;;29.18;17.65;;;;;;;-8.49;100.00;100118.87;1686995;85;20896;-71
2022/01/25 10:00:36;;;;;;;40.90;24.47;;;;;;;-8.43;100.00;100124.92;1683540;85;21141;-72
2022/01/25 10:03:12;;;;;;;27.48;19.35;;;;;;;-8.37;100.00;100132.70;1685444;85;20920;-69
2022/01/25 10:05:42;;;;;;;25.12;17.10;;;;;;;-8.25;100.00;100125.23;1685798;85;20908;-70
2022/01/25 10:08:24;;;;;;;24.95;15.85;;;;;;;-8.19;100.00;100130.44;1653028;85;21025;-69
2022/01/25 10:10:57;;;;;;;33.90;19.62;;;;;;;-8.29;100.00;100125.11;1684289;83;20928;-68
2022/01/25 10:13:29;;;;;;;89.28;42.03;;;;;;;-8.30;100.00;100123.47;1692329;84;21130;-70
2022/01/25 10:16:03;;;;;;;21.05;14.73;;;;;;;-8.31;100.00;100119.67;1682240;85;20903;-71
2022/01/25 10:18:39;;;;;;;21.70;12.58;;;;;;;-8.49;100.00;100112.84;1684714;85;20938;-69
2022/01/25 10:21:26;;;;;;;29.07;18.70;;;;;;;-8.51;100.00;100110.34;1684195;85;20875;-70
2022/01/25 10:24:09;;;;;;;21.20;10.88;;;;;;;-8.53;100.00;100108.33;1680907;85;20938;-71
2022/01/25 10:26:50;;;;;;;31.15;18.40;;;;;;;-8.56;100.00;100095.55;1684619;85;21146;-69
2022/01/25 10:29:20;;;;;;;29.25;16.52;;;;;;;-8.47;100.00;100092.73;1665036;85;20894;-71
2022/01/25 10:31:52;;;;;;;18.55;12.75;;;;;;;-8.25;100.00;100082.75;1656492;86;20938;-66
2022/01/25 10:34:27;;;;;;;12.73;9.68;;;;;;;-8.07;100.00;100077.86;1656887;86;21586;-70
2022/01/25 10:36:54;;;;;;;32.20;14.53;;;;;;;-8.13;100.00;100077.87;1648402;87;20913;-75
2022/01/25 10:39:30;;;;;;;27.85;16.80;;;;;;;-8.26;100.00;100071.95;1633004;86;21221;-73
2022/01/25 10:42:20;;;;;;;27.15;16.32;;;;;;;-8.12;100.00;100065.67;1652934;86;20958;-73
2022/01/25 10:45:08;;;;;;;30.23;20.55;;;;;;;-8.12;100.00;100071.70;1618511;86;20961;-69
2022/01/25 10:47:49;;;;;;;26.00;16.52;;;;;;;-8.01;100.00;100064.33;1663579;85;20986;-70
2022/01/25 10:50:28;;;;;;;31.00;19.80;;;;;;;-7.82;100.00;100057.19;1666599;85;20946;-70
2022/01/25 10:53:15;;;;;;;19.25;12.85;;;;;;;-7.79;100.00;100049.11;1679408;85;21523;-69
2022/01/25 10:55:44;;;;;;;20.40;12.98;;;;;;;-7.85;100.00;100047.83;1679225;85;20922;-72
2022/01/25 10:58:12;;;;;;;26.00;16.95;;;;;;;-7.83;100.00;100041.20;1677368;85;20998;-70
2022/01/25 11:00:44;;;;;;;20.80;16.35;;;;;;;-7.70;100.00;100039.73;1677638;85;20949;-70
2022/01/25 11:03:11;;;;;;;31.23;17.73;;;;;;;-7.55;100.00;100035.39;1677664;85;21025;-69
2022/01/25 11:05:40;;;;;;;29.63;20.12;;;;;;;-7.65;100.00;100037.58;1657607;85;21142;-71
2022/01/25 11:08:16;;;;;;;23.77;10.25;;;;;;;-7.52;100.00;100036.09;1678164;85;21484;-70
2022/01/25 11:10:59;;;;;;;29.02;18.02;;;;;;;-7.60;100.00;100034.94;1677512;85;21046;-70
2022/01/25 11:15:57;;;;;;;44.40;14.60;;;;;;;-7.62;100.00;100020.37;1653822;86;20899;-70
2022/01/25 11:18:25;;;;;;;19.92;13.20;;;;;;;-7.69;100.00;100021.38;1672018;85;21174;-69
2022/01/25 11:20:53;;;;;;;35.48;20.65;;;;;;;-7.76;100.00;100008.00;1680870;85;21525;-71
2022/01/25 11:23:20;;;;;;;32.25;20.52;;;;;;;-7.67;100.00;100009.50;1681578;85;25085;-71
2022/01/25 11:25:48;;;;;;;18.20;13.05;;;;;;;-7.72;100.00;100007.27;1681289;85;20952;-72
2022/01/25 11:28:16;;;;;;;46.98;25.95;;;;;;;-7.56;100.00;99998.55;1681465;85;20885;-69
2022/01/25 11:30:43;;;;;;;37.75;22.60;;;;;;;-7.56;100.00;99998.55;1681377;85;21628;-69
2022/01/25 11:33:11;;;;;;;32.80;20.00;;;;;;;-7.27;100.00;100004.92;1693137;84;21479;-71
2022/01/25 11:35:38;;;;;;;34.48;20.35;;;;;;;-7.23;100.00;99995.38;1678392;83;20948;-70
2022/01/25 11:38:05;;;;;;;68.30;37.03;;;;;;;-7.28;100.00;99998.03;1687282;85;21411;-71
2022/01/25 11:40:43;;;;;;;45.03;24.27;;;;;;;-7.29;100.00;99993.78;1681468;85;21137;-70
2022/01/25 11:43:15;;;;;;;38.00;21.65;;;;;;;-7.19;100.00;99988.14;1686668;85;21530;-70
2022/01/25 11:45:49;;;;;;;35.75;19.27;;;;;;;-7.26;100.00;99991.73;1657861;85;20994;-72
2022/01/25 11:48:24;;;;;;;43.13;23.07;;;;;;;-7.31;100.00;99978.73;1632991;87;21349;-69
2022/01/25 11:50:51;;;;;;;44.63;24.35;;;;;;;-7.26;100.00;99975.27;1630615;85;20921;-71
2022/01/25 11:53:19;;;;;;;43.10;24.20;;;;;;;-7.32;100.00;99977.92;1610630;88;20993;-72
2022/01/25 11:55:48;;;;;;;59.40;29.65;;;;;;;-7.32;100.00;99968.79;1630150;88;21217;-70
2022/01/25 11:58:25;;;;;;;47.00;21.42;;;;;;;-7.32;100.00;99963.58;1630186;88;21429;-69
2022/01/25 12:01:18;;;;;;;48.40;19.52;;;;;;;-7.31;100.00;99953.95;1630335;88;21524;-70
2022/01/25 12:03:49;;;;;;;43.85;20.68;;;;;;;-7.43;100.00;99951.41;1643280;86;21491;-69
2022/01/25 12:06:24;;;;;;;39.73;20.95;;;;;;;-7.48;100.00;99940.55;1643039;86;20916;-69
2022/01/25 12:12:00;;;;;;;51.70;26.62;;;;;;;-7.43;100.00;99937.07;1678106;85;20928;-69
2022/01/25 12:14:33;;;;;;;55.08;27.07;;;;;;;-7.39;100.00;99936.35;1652344;85;20921;-71
2022/01/25 12:17:09;;;;;;;47.95;25.35;;;;;;;-7.35;100.00;99923.38;1652648;86;20965;-69
2022/01/25 12:19:47;;;;;;;55.00;28.85;;;;;;;-7.36;100.00;99918.66;1659548;85;20884;-70
2022/01/25 12:22:38;;;;;;;53.80;29.45;;;;;;;-7.32;100.00;99911.41;1680801;85;21243;-70
2022/01/25 12:25:25;;;;;;;41.37;21.68;;;;;;;-7.27;100.00;99913.15;1682237;85;20968;-68
2022/01/25 12:28:06;;;;;;;29.75;17.07;;;;;;;-7.26;100.00;99897.83;1686139;85;20988;-69
2022/01/25 12:30:40;;;;;;;41.80;23.27;;;;;;;-7.37;100.00;99896.14;1686031;85;20929;-72
2022/01/25 12:33:24;;;;;;;42.48;24.47;;;;;;;-7.28;100.00;99893.22;1675825;85;20925;-70
2022/01/25 12:36:07;;;;;;;62.43;31.37;;;;;;;-7.33;100.00;99892.78;1647135;86;21817;-71
2022/01/25 12:38:46;;;;;;;56.85;28.30;;;;;;;-7.23;100.00;99894.95;1655510;86;20918;-70
2022/01/25 12:41:20;;;;;;;59.85;29.37;;;;;;;-7.33;100.00;99896.70;1655647;86;20922;-70
2022/01/25 12:43:53;;;;;;;50.08;25.70;;;;;;;-7.32;100.00;99890.55;1655454;86;20929;-70
2022/01/25 12:46:33;;;;;;;43.60;24.50;;;;;;;-7.34;100.00;99888.54;1658429;84;20987;-72